Time;durP1;ratioP1;P1;durP2;ratioP2;P2;SDS_P1;SDS_P2;PMS_P1;PMS_P2;Temp;Humidity;BMP_temperature;BMP_pressure;BME280_temperature;BME280_humidity;BME280_pressure;Samples;Min_cycle;Max_cycle;Signal;HPM_P1;HPM_P2
2024/01/02 00:02:10;;;;;;;27.60;12.98;;;;;;;6.65;95.44;94918.19;4977102;28;20464;-87
2024/01/02 00:04:36;;;;;;;27.05;13.15;;;;;;;7.09;95.23;94976.72;4976356;28;20088;-87
2024/01/02 00:07:02;;;;;;;18.05;10.55;;;;;;;6.40;95.34;94873.28;4958702;28;20035;-87
2024/01/02 00:09:28;;;;;;;18.38;9.88;;;;;;;6.29;94.78;94855.81;4959358;28;20027;-87
2024/01/02 00:11:53;;;;;;;19.02;10.98;;;;;;;7.14;94.95;94982.00;4959409;28;20093;-87
2024/01/02 00:14:19;;;;;;;15.88;9.68;;;;;;;7.00;94.74;94975.59;4959256;28;20042;-87
2024/01/02 00:16:44;;;;;;;20.17;10.13;;;;;;;5.95;95.12;94835.03;4976073;28;20105;-87
2024/01/02 00:19:10;;;;;;;17.13;10.25;;;;;;;6.82;95.16;94960.19;4959148;28;20125;-87
2024/01/02 00:21:36;;;;;;;16.05;9.60;;;;;;;6.95;94.81;94981.63;4977131;28;20045;-87
2024/01/02 00:24:02;;;;;;;16.75;9.60;;;;;;;6.63;94.84;94922.94;4977087;28;20031;-87
2024/01/02 00:26:28;;;;;;;12.32;7.57;;;;;;;6.49;94.40;94895.44;4958609;28;20034;-87
2024/01/02 00:28:54;;;;;;;13.13;7.95;;;;;;;6.82;94.11;94942.53;4958956;28;20097;-87
2024/01/02 00:31:19;;;;;;;11.93;7.88;;;;;;;7.19;93.20;94991.78;4958767;28;20031;-88
2024/01/02 00:33:45;;;;;;;16.88;9.13;;;;;;;6.81;93.28;94924.34;4958258;28;20030;-87
2024/01/02 00:36:11;;;;;;;9.98;5.90;;;;;;;7.18;92.54;94995.44;4975991;28;20039;-87
2024/01/02 00:38:38;;;;;;;11.85;7.07;;;;;;;6.91;92.54;94953.41;4976883;28;20031;-87
2024/01/02 00:41:04;;;;;;;12.38;6.22;;;;;;;4.93;92.17;94638.84;4959105;28;20035;-87
2024/01/02 00:43:30;;;;;;;12.00;6.63;;;;;;;6.69;91.51;94908.75;4976757;28;20077;-87
2024/01/02 00:45:56;;;;;;;9.75;5.88;;;;;;;5.13;91.61;94647.91;4976966;28;20065;-87
2024/01/02 00:48:22;;;;;;;9.32;6.05;;;;;;;7.02;91.28;94943.72;4958327;28;20470;-87
2024/01/02 00:50:47;;;;;;;11.55;5.80;;;;;;;5.56;91.04;94710.03;4981044;28;20106;-88
2024/01/02 00:53:13;;;;;;;7.50;4.32;;;;;;;7.29;90.65;94979.44;4987969;28;20041;-88
2024/01/02 00:55:38;;;;;;;7.03;5.28;;;;;;;6.94;90.67;94931.81;4970759;28;20069;-88
2024/01/02 00:58:04;;;;;;;10.32;5.22;;;;;;;7.26;90.46;94973.88;4970173;28;20031;-88
2024/01/02 01:00:30;;;;;;;9.20;5.65;;;;;;;6.69;91.07;94884.22;4989291;28;20054;-88
2024/01/02 01:02:55;;;;;;;8.73;5.55;;;;;;;7.12;90.82;94970.91;4995241;28;20045;-88
2024/01/02 01:05:21;;;;;;;9.13;5.78;;;;;;;6.65;91.49;94889.19;4978658;28;20050;-90
2024/01/02 01:07:46;;;;;;;10.52;5.65;;;;;;;6.94;91.16;94937.09;4996175;28;20027;-89
2024/01/02 01:10:12;;;;;;;9.65;5.45;;;;;;;6.28;90.99;94817.34;4978859;28;20109;-90
2024/01/02 01:12:37;;;;;;;9.40;5.30;;;;;;;5.80;90.86;94742.78;4978824;28;20050;-88
2024/01/02 01:15:04;;;;;;;9.30;5.38;;;;;;;7.37;90.62;94970.22;4978889;28;20124;-89
2024/01/02 01:17:30;;;;;;;10.63;6.10;;;;;;;5.38;90.41;94659.41;4995702;28;20035;-90
2024/01/02 01:19:56;;;;;;;9.57;6.55;;;;;;;6.74;90.66;94874.50;4993383;28;20042;-87
2024/01/02 01:22:22;;;;;;;10.10;6.07;;;;;;;6.39;90.51;94830.34;4959489;28;20143;-87
2024/01/02 01:24:48;;;;;;;10.00;5.78;;;;;;;7.03;90.63;94917.06;4976295;28;20039;-87
2024/01/02 01:27:14;;;;;;;9.13;6.00;;;;;;;6.99;90.42;94908.09;4959358;28;20054;-87
2024/01/02 01:29:39;;;;;;;12.35;5.72;;;;;;;6.84;90.44;94884.31;4976644;28;20035;-87
2024/01/02 01:32:05;;;;;;;9.27;5.80;;;;;;;6.83;90.55;94886.16;4958555;28;20149;-87
2024/01/02 01:34:31;;;;;;;13.85;6.15;;;;;;;7.43;90.62;94982.38;4959047;28;20035;-87
2024/01/02 01:36:56;;;;;;;9.75;6.32;;;;;;;7.25;90.91;94970.44;4976781;28;20482;-88
2024/01/02 01:39:22;;;;;;;11.82;7.30;;;;;;;7.10;92.10;94964.28;4958820;28;20074;-87
2024/01/02 01:41:47;;;;;;;10.50;6.63;;;;;;;5.78;91.72;94753.59;4962205;28;20380;-87
2024/01/02 01:44:13;;;;;;;12.30;7.65;;;;;;;6.91;92.29;94921.75;4978169;28;20109;-87
2024/01/02 01:46:40;;;;;;;12.18;6.50;;;;;;;7.20;92.00;94961.72;4979762;28;20113;-87
2024/01/02 01:49:07;;;;;;;11.45;6.80;;;;;;;5.69;91.82;94722.75;4962911;28;20041;-87
2024/01/02 01:51:39;;;;;;;13.98;6.32;;;;;;;6.65;91.82;94869.97;4982724;28;20130;-87
2024/01/02 01:54:05;;;;;;;13.52;7.75;;;;;;;7.35;91.87;94969.69;4984948;28;20030;-88
2024/01/02 01:56:33;;;;;;;10.43;7.35;;;;;;;6.65;91.94;94849.69;4972449;28;20054;-87
2024/01/02 01:59:00;;;;;;;15.35;7.93;;;;;;;6.37;92.08;94834.25;4983061;28;20035;-87
2024/01/02 02:01:27;;;;;;;17.05;9.73;;;;;;;6.86;92.48;94919.13;4962614;28;20031;-85
2024/01/02 02:03:54;;;;;;;18.30;9.45;;;;;;;7.00;92.65;94935.25;4960769;28;20035;-83
2024/01/02 02:06:21;;;;;;;15.93;9.27;;;;;;;6.36;92.25;94841.38;4977405;28;20057;-83
2024/01/02 02:08:46;;;;;;;18.25;10.23;;;;;;;5.60;92.21;94726.88;4959964;28;20043;-84
2024/01/02 02:11:13;;;;;;;19.17;10.57;;;;;;;5.38;92.98;94701.50;4958229;28;20038;-85
2024/01/02 02:13:40;;;;;;;22.83;11.85;;;;;;;5.90;93.06;94768.41;4957760;28;20046;-83
2024/01/02 02:16:06;;;;;;;24.23;10.30;;;;;;;6.64;93.19;94874.44;4975020;28;20038;-83
2024/01/02 02:18:31;;;;;;;38.40;19.67;;;;;;;6.34;92.19;94861.09;4957671;28;20038;-84
2024/01/02 02:20:57;;;;;;;51.63;27.30;;;;;;;6.96;93.07;94953.41;4957756;28;20066;-83
2024/01/02 02:23:23;;;;;;;59.55;28.98;;;;;;;6.85;92.56;94941.25;4957755;28;20117;-84
2024/01/02 02:25:48;;;;;;;52.35;27.58;;;;;;;7.00;92.78;94951.88;4976279;28;20034;-84
2024/01/02 02:28:14;;;;;;;53.67;26.23;;;;;;;7.00;92.31;94951.88;4957805;28;20035;-83
2024/01/02 02:30:39;;;;;;;60.05;28.88;;;;;;;7.07;92.90;94968.25;4957248;28;20035;-84
2024/01/02 02:33:05;;;;;;;66.93;30.67;;;;;;;6.17;92.55;94822.56;4973603;28;20030;-83
2024/01/02 02:35:30;;;;;;;66.38;29.25;;;;;;;5.99;92.29;94796.66;4973833;28;20351;-84
2024/01/02 02:37:56;;;;;;;66.97;32.03;;;;;;;7.10;92.48;94974.84;4956136;28;20069;-85
2024/01/02 02:40:22;;;;;;;68.45;34.42;;;;;;;5.50;92.47;94711.81;4956786;28;20130;-84
2024/01/02 02:42:47;;;;;;;63.53;33.33;;;;;;;5.57;92.28;94722.16;4980257;28;20062;-88
2024/01/02 02:45:13;;;;;;;75.97;35.58;;;;;;;5.19;91.90;94665.34;4976718;28;20042;-88
2024/01/02 02:47:39;;;;;;;75.53;36.40;;;;;;;4.91;91.72;94625.16;4958272;28;20039;-88
2024/01/02 02:50:06;;;;;;;70.10;35.90;;;;;;;3.73;91.88;94435.44;4977941;28;20054;-88
2024/01/02 02:52:32;;;;;;;71.22;33.00;;;;;;;5.08;92.23;94661.84;4957909;28;20031;-88
2024/01/02 02:54:58;;;;;;;66.40;32.65;;;;;;;5.27;92.05;94691.94;4957745;28;20027;-88
2024/01/02 02:57:24;;;;;;;59.97;29.83;;;;;;;6.80;93.66;94957.81;4975109;28;20054;-88
2024/01/02 02:59:50;;;;;;;50.72;25.35;;;;;;;6.79;93.83;94952.81;4957519;28;20050;-88
2024/01/02 03:02:16;;;;;;;50.00;25.88;;;;;;;5.29;94.39;94736.38;4975497;28;20627;-88
2024/01/02 03:04:42;;;;;;;47.60;24.20;;;;;;;6.19;94.41;94867.84;4975529;28;20035;-88
2024/01/02 03:07:09;;;;;;;40.45;20.48;;;;;;;6.59;94.25;94922.66;4957597;28;20035;-88
2024/01/02 03:09:34;;;;;;;36.97;18.50;;;;;;;6.60;94.03;94926.06;4975761;28;20534;-87
2024/01/02 03:12:00;;;;;;;52.15;22.75;;;;;;;6.85;94.07;94952.59;4957899;28;20072;-88
2024/01/02 03:14:25;;;;;;;41.47;22.10;;;;;;;6.26;93.72;94859.72;4975483;28;20038;-88
2024/01/02 03:16:51;;;;;;;21.85;12.02;;;;;;;6.64;94.11;94958.00;4975468;28;20119;-88
2024/01/02 03:19:16;;;;;;;18.40;10.27;;;;;;;6.63;94.16;94956.41;4957749;28;20039;-87
2024/01/02 03:21:42;;;;;;;19.73;7.85;;;;;;;5.80;94.53;94842.78;4975165;28;20101;-87
2024/01/02 03:24:07;;;;;;;17.85;9.13;;;;;;;4.79;94.68;94674.47;4975466;28;20039;-87
2024/01/02 03:26:33;;;;;;;15.23;7.88;;;;;;;4.40;95.00;94612.66;4975427;28;20166;-88
2024/01/02 03:28:59;;;;;;;15.07;7.55;;;;;;;6.41;94.98;94938.06;4976051;28;20057;-88
2024/01/02 03:31:24;;;;;;;17.08;9.77;;;;;;;5.68;95.11;94816.66;4957589;28;20050;-88
2024/01/02 03:33:50;;;;;;;15.35;7.32;;;;;;;6.59;95.50;94954.25;4959288;28;20118;-88
2024/01/02 03:36:20;;;;;;;10.57;6.45;;;;;;;6.56;95.04;94957.38;4957774;28;20058;-88
2024/01/02 03:38:46;;;;;;;9.07;4.85;;;;;;;5.89;94.88;94872.91;4942243;28;20039;-88
2024/01/02 03:41:12;;;;;;;9.18;5.47;;;;;;;5.39;95.52;94792.50;4963930;28;20320;-89
2024/01/02 03:43:38;;;;;;;7.90;5.15;;;;;;;5.89;95.93;94862.38;4972375;28;20092;-88
2024/01/02 03:46:03;;;;;;;6.70;4.18;;;;;;;6.41;95.56;94953.84;4998318;23;20049;-79
2024/01/02 03:48:29;;;;;;;7.93;4.88;;;;;;;6.36;95.91;94941.44;5036117;28;20442;-79
2024/01/02 03:50:54;;;;;;;9.38;5.57;;;;;;;6.35;95.65;94934.59;5053945;28;20415;-79
2024/01/02 03:53:20;;;;;;;13.02;5.00;;;;;;;6.61;95.21;94959.28;5035567;28;20480;-79
2024/01/02 03:55:46;;;;;;;8.02;4.78;;;;;;;6.55;94.91;94947.13;5054307;28;20045;-79
2024/01/02 03:58:11;;;;;;;9.18;5.47;;;;;;;6.21;94.63;94878.13;5035793;28;20107;-79
2024/01/02 04:00:37;;;;;;;7.75;4.95;;;;;;;6.36;94.38;94896.69;5035785;28;20424;-79
2024/01/02 04:03:02;;;;;;;7.45;4.63;;;;;;;6.64;94.18;94929.00;5054003;28;20475;-79
2024/01/02 04:05:29;;;;;;;9.77;5.10;;;;;;;6.64;94.23;94924.50;5053866;28;20557;-79
2024/01/02 04:07:54;;;;;;;11.95;6.85;;;;;;;6.79;93.52;94971.25;5035359;28;20113;-79
2024/01/02 04:10:20;;;;;;;12.02;7.35;;;;;;;6.33;93.52;94897.16;5053653;28;20325;-79
2024/01/02 04:12:45;;;;;;;11.70;6.28;;;;;;;6.50;93.80;94937.34;5053520;28;20337;-79
2024/01/02 04:15:11;;;;;;;14.00;7.63;;;;;;;6.09;93.60;94872.28;5053599;28;20049;-79
2024/01/02 04:17:36;;;;;;;16.05;7.93;;;;;;;6.19;93.96;94909.97;5025246;28;20037;-79
2024/01/02 04:20:02;;;;;;;11.85;7.60;;;;;;;6.21;94.15;94912.38;5032506;28;20033;-79
2024/01/02 04:22:27;;;;;;;12.98;6.97;;;;;;;6.48;94.46;94957.88;5033314;28;20365;-79
2024/01/02 04:24:53;;;;;;;12.15;7.55;;;;;;;6.19;93.95;94928.41;5015447;28;20116;-79
2024/01/02 04:27:19;;;;;;;15.18;7.82;;;;;;;6.42;93.98;94953.59;5015252;28;20045;-79
2024/01/02 04:29:44;;;;;;;13.63;8.00;;;;;;;6.60;93.95;94965.59;5016141;28;20078;-81
2024/01/02 04:32:10;;;;;;;16.83;8.30;;;;;;;5.69;93.38;94838.50;5015439;28;20176;-81
2024/01/02 04:34:36;;;;;;;17.98;8.52;;;;;;;6.34;93.28;94943.53;5015510;28;20056;-81
2024/01/02 04:37:02;;;;;;;16.27;8.90;;;;;;;6.36;93.51;94953.81;5033050;28;20030;-81
2024/01/02 04:39:27;;;;;;;14.50;8.75;;;;;;;5.94;93.38;94893.22;5032399;28;20474;-81
2024/01/02 04:41:53;;;;;;;15.30;9.02;;;;;;;6.04;93.66;94920.41;5015387;28;20553;-80
2024/01/02 04:44:18;;;;;;;15.45;9.45;;;;;;;6.30;93.73;94942.47;5015184;28;20030;-81
2024/01/02 04:46:44;;;;;;;15.60;8.50;;;;;;;6.51;94.01;94969.75;5015490;28;20057;-81
2024/01/02 04:49:09;;;;;;;16.92;7.82;;;;;;;6.39;93.77;94964.66;5033713;28;20083;-81
2024/01/02 04:51:35;;;;;;;7.95;4.95;;;;;;;6.07;92.96;94925.16;5033116;28;20029;-81
2024/01/02 04:54:00;;;;;;;12.85;5.55;;;;;;;6.16;93.23;94938.69;5015221;28;20025;-81
2024/01/02 04:56:26;;;;;;;8.15;4.88;;;;;;;6.20;94.01;94963.44;5015415;28;20526;-81
2024/01/02 04:58:51;;;;;;;10.68;4.60;;;;;;;6.20;94.06;94968.72;5015458;28;20654;-81
2024/01/02 05:01:17;;;;;;;7.30;4.40;;;;;;;5.87;94.38;94930.25;5014889;28;20076;-81
2024/01/02 05:03:43;;;;;;;7.32;4.22;;;;;;;6.09;94.07;94970.47;5033219;28;20394;-81
2024/01/02 05:06:08;;;;;;;7.07;4.60;;;;;;;5.92;94.58;94959.25;5015307;28;20041;-81
2024/01/02 05:08:34;;;;;;;9.23;3.55;;;;;;;6.05;94.00;94971.22;5014971;28;20029;-81
2024/01/02 05:11:00;;;;;;;7.40;4.07;;;;;;;5.79;94.78;94928.06;5014705;28;20103;-81
2024/01/02 05:13:25;;;;;;;6.97;4.28;;;;;;;6.03;94.46;94963.56;5014793;28;20036;-81
2024/01/02 05:15:51;;;;;;;4.78;3.33;;;;;;;5.72;94.61;94927.47;5014663;28;20388;-81
2024/01/02 05:18:16;;;;;;;7.80;4.13;;;;;;;6.05;95.24;94994.91;5032626;28;20108;-81
2024/01/02 05:20:42;;;;;;;6.10;3.42;;;;;;;5.98;94.61;94989.03;5014719;28;20416;-81
2024/01/02 05:23:08;;;;;;;5.55;3.55;;;;;;;5.64;95.50;94951.59;5014835;28;20029;-81
2024/01/02 05:25:33;;;;;;;4.43;3.15;;;;;;;5.30;94.94;94906.25;5014835;28;20033;-81
2024/01/02 05:27:59;;;;;;;3.72;2.70;;;;;;;5.37;94.53;94935.78;5031075;28;20034;-82
2024/01/02 05:30:25;;;;;;;7.65;3.53;;;;;;;5.18;95.51;94916.91;5014212;28;20041;-83
2024/01/02 05:32:51;;;;;;;4.65;2.95;;;;;;;5.13;95.93;94929.19;5030131;28;20029;-82
2024/01/02 05:35:16;;;;;;;4.53;2.75;;;;;;;5.57;95.93;95022.78;5032392;28;20043;-82
2024/01/02 05:37:42;;;;;;;5.72;3.55;;;;;;;5.56;97.14;95010.69;5015083;28;20037;-82
2024/01/02 05:40:09;;;;;;;5.30;3.03;;;;;;;5.51;97.12;94996.69;5031295;28;20033;-80
2024/01/02 05:42:35;;;;;;;4.45;2.83;;;;;;;5.42;96.93;94996.31;5012449;28;20164;-80
2024/01/02 05:45:01;;;;;;;4.05;3.20;;;;;;;5.48;97.04;95003.25;5030475;28;20129;-80
2024/01/02 05:47:26;;;;;;;8.32;3.22;;;;;;;5.24;97.52;94989.53;5030843;28;20046;-80
2024/01/02 05:49:52;;;;;;;5.40;2.47;;;;;;;5.25;97.21;94971.94;5030987;28;20441;-80
2024/01/02 05:52:17;;;;;;;4.22;2.80;;;;;;;5.28;97.46;95014.28;5030203;28;20026;-80
2024/01/02 05:54:43;;;;;;;3.80;2.78;;;;;;;5.07;96.94;94990.63;5030363;28;20417;-80
2024/01/02 05:57:10;;;;;;;5.70;2.20;;;;;;;5.42;97.23;95033.13;5029910;28;20043;-80
2024/01/02 05:59:36;;;;;;;3.90;2.60;;;;;;;5.14;96.92;95015.69;5012182;28;20396;-80
2024/01/02 06:02:01;;;;;;;2.72;1.83;;;;;;;5.21;96.80;95047.06;5012488;28;20318;-80
2024/01/02 06:04:27;;;;;;;2.90;2.10;;;;;;;5.18;97.22;95040.47;5011405;28;20052;-79
2024/01/02 06:06:52;;;;;;;4.55;2.00;;;;;;;5.07;98.20;95049.25;5005910;28;20113;-80
2024/01/02 06:09:18;;;;;;;3.80;2.10;;;;;;;4.82;97.63;95012.09;5030253;28;20507;-80
2024/01/02 06:11:43;;;;;;;4.97;2.75;;;;;;;4.61;98.01;94984.75;5029811;28;20037;-79
2024/01/02 06:14:11;;;;;;;2.75;2.17;;;;;;;4.95;98.13;95051.97;5012048;28;20028;-79
2024/01/02 06:16:37;;;;;;;5.32;2.80;;;;;;;4.34;98.49;94960.97;5011949;28;20510;-79
2024/01/02 06:19:03;;;;;;;4.47;2.60;;;;;;;4.51;99.36;94980.13;5030055;28;20033;-79
2024/01/02 06:21:29;;;;;;;4.13;2.30;;;;;;;4.73;98.79;95035.34;5029833;28;20082;-79
2024/01/02 06:23:54;;;;;;;4.75;2.50;;;;;;;4.54;98.91;95021.69;5030068;28;20061;-79
2024/01/02 06:26:20;;;;;;;5.18;2.40;;;;;;;4.98;99.40;95080.41;5029284;28;20483;-79
2024/01/02 06:28:45;;;;;;;3.78;2.45;;;;;;;4.96;99.21;95092.16;5011961;28;20026;-79
2024/01/02 06:31:11;;;;;;;4.60;2.58;;;;;;;4.63;98.96;95045.72;5011537;28;20057;-79
2024/01/02 06:33:36;;;;;;;3.13;2.42;;;;;;;4.92;99.65;95091.06;5012598;28;20021;-79
2024/01/02 06:36:02;;;;;;;2.78;2.28;;;;;;;4.85;99.35;95080.72;5011718;28;20037;-79
2024/01/02 06:38:28;;;;;;;5.10;2.42;;;;;;;4.66;98.56;95067.03;5029840;28;20041;-79
2024/01/02 06:40:54;;;;;;;3.08;1.65;;;;;;;4.72;98.67;95085.50;5027180;28;20452;-79
2024/01/02 06:43:19;;;;;;;3.55;1.95;;;;;;;4.42;99.08;95044.59;5050133;28;20040;-79
2024/01/02 06:45:45;;;;;;;2.90;1.73;;;;;;;4.62;99.46;95091.41;5031797;28;20036;-80
2024/01/02 06:48:10;;;;;;;3.00;1.55;;;;;;;4.10;99.51;95015.44;5031980;28;20399;-79
2024/01/02 06:50:36;;;;;;;2.97;2.10;;;;;;;4.48;99.07;95069.91;5031919;28;20068;-79
2024/01/02 06:53:02;;;;;;;1.88;1.52;;;;;;;4.56;98.36;95137.00;5050546;28;20037;-79
2024/01/02 06:55:27;;;;;;;1.60;1.50;;;;;;;4.11;98.31;95082.66;5049864;28;20436;-79
2024/01/02 06:57:53;;;;;;;5.30;2.22;;;;;;;4.34;99.42;95115.09;5031939;28;20035;-79
2024/01/02 07:00:19;;;;;;;2.50;1.60;;;;;;;3.84;99.39;95066.66;5049589;28;20051;-78
2024/01/02 07:02:44;;;;;;;2.88;1.63;;;;;;;4.05;99.04;95082.78;5032131;28;20045;-79
2024/01/02 07:05:14;;;;;;;3.92;2.05;;;;;;;4.27;99.02;95109.97;5050129;28;20091;-80
2024/01/02 07:07:40;;;;;;;6.13;1.55;;;;;;;4.39;98.25;95154.53;5032453;28;20021;-79
2024/01/02 07:10:06;;;;;;;1.90;1.23;;;;;;;4.42;98.42;95136.50;5032194;28;20029;-79
2024/01/02 07:12:32;;;;;;;2.10;1.40;;;;;;;3.94;98.04;95078.38;5031805;28;20037;-80
2024/01/02 07:14:57;;;;;;;4.35;1.63;;;;;;;4.34;98.67;95118.50;5032275;28;20025;-80
2024/01/02 07:17:23;;;;;;;5.57;2.10;;;;;;;4.38;98.90;95124.88;5034784;28;20095;-79
2024/01/02 07:19:50;;;;;;;4.10;2.03;;;;;;;4.36;99.03;95118.25;5035798;28;20033;-79
2024/01/02 07:22:16;;;;;;;4.82;1.92;;;;;;;4.25;98.99;95101.53;5053619;28;20029;-79
2024/01/02 07:24:41;;;;;;;3.78;1.83;;;;;;;4.44;98.56;95129.16;5036098;28;20040;-79
2024/01/02 07:27:07;;;;;;;3.00;1.52;;;;;;;4.04;98.73;95062.84;5036288;28;20127;-79
2024/01/02 07:29:32;;;;;;;4.78;1.30;;;;;;;4.38;97.52;95129.31;5036197;28;20037;-79
2024/01/02 07:31:58;;;;;;;5.60;1.58;;;;;;;4.35;97.65;95143.69;5053439;28;20044;-80
2024/01/02 07:34:24;;;;;;;4.70;1.48;;;;;;;3.97;97.30;95085.81;5035807;28;20503;-79
2024/01/02 07:36:50;;;;;;;2.38;1.10;;;;;;;4.05;96.25;95116.88;5054040;28;20144;-79
2024/01/02 07:39:15;;;;;;;1.75;1.10;;;;;;;3.89;96.12;95107.97;5054275;28;20060;-79
2024/01/02 07:41:41;;;;;;;2.55;1.20;;;;;;;4.17;96.10;95155.22;5035711;28;20123;-80
2024/01/02 07:44:07;;;;;;;3.17;1.48;;;;;;;3.70;96.27;95086.34;5053839;28;20040;-79
2024/01/02 07:46:33;;;;;;;2.33;1.15;;;;;;;3.72;96.53;95088.72;5053360;28;20057;-79
2024/01/02 07:48:58;;;;;;;1.15;0.90;;;;;;;4.03;96.08;95135.53;5054047;28;20451;-79
2024/01/02 07:51:24;;;;;;;3.15;1.20;;;;;;;3.97;96.61;95125.16;5035365;28;20491;-79
2024/01/02 07:53:50;;;;;;;3.25;1.20;;;;;;;3.80;96.33;95104.91;5053568;28;20040;-79
2024/01/02 07:56:19;;;;;;;3.38;1.25;;;;;;;4.27;97.36;95167.72;5035067;28;20124;-79
2024/01/02 07:58:48;;;;;;;2.70;1.38;;;;;;;3.96;97.50;95102.56;5035418;28;20041;-78
2024/01/02 08:01:13;;;;;;;4.05;1.42;;;;;;;4.36;96.89;95166.31;5056024;28;20037;-79
2024/01/02 08:03:39;;;;;;;1.70;1.20;;;;;;;4.08;96.62;95127.72;5038335;28;20036;-79
2024/01/02 08:06:05;;;;;;;3.08;1.95;;;;;;;3.98;97.16;95088.16;5055650;28;20115;-79
2024/01/02 08:08:30;;;;;;;4.47;2.13;;;;;;;4.31;96.74;95145.22;5037819;28;20028;-79
2024/01/02 08:10:56;;;;;;;4.88;1.60;;;;;;;3.91;96.15;95110.31;5055581;28;20029;-79
2024/01/02 08:13:22;;;;;;;2.38;1.13;;;;;;;4.36;95.83;95166.31;5056368;28;20479;-79
2024/01/02 08:15:47;;;;;;;3.38;1.42;;;;;;;4.41;95.05;95176.13;5056614;28;20064;-79
2024/01/02 08:18:13;;;;;;;3.88;1.30;;;;;;;4.06;95.04;95108.00;5037866;28;20033;-79
2024/01/02 08:20:38;;;;;;;3.97;1.13;;;;;;;4.12;95.39;95131.47;5039250;28;20029;-80
2024/01/02 08:23:05;;;;;;;3.47;1.52;;;;;;;4.07;94.97;95125.34;5056416;28;20029;-79
2024/01/02 08:25:31;;;;;;;1.77;1.15;;;;;;;4.50;94.37;95196.50;5038392;28;20262;-79
2024/01/02 08:27:56;;;;;;;1.70;1.05;;;;;;;4.28;94.07;95175.34;5056048;28;20513;-79
2024/01/02 08:30:22;;;;;;;1.67;1.23;;;;;;;4.41;95.22;95194.50;5038036;28;20056;-79
2024/01/02 08:32:48;;;;;;;1.08;0.88;;;;;;;4.33;94.03;95182.53;5039319;28;20054;-81
2024/01/02 08:35:13;;;;;;;1.15;0.80;;;;;;;3.77;94.44;95091.44;5056603;28;20040;-79
2024/01/02 08:37:41;;;;;;;4.53;1.27;;;;;;;4.33;95.18;95174.66;5053875;28;20025;-80
2024/01/02 08:40:07;;;;;;;2.28;1.10;;;;;;;4.25;94.48;95173.22;5035580;28;20090;-79
2024/01/02 08:42:33;;;;;;;1.60;1.20;;;;;;;4.01;94.50;95118.41;5034590;28;20152;-79
2024/01/02 08:44:59;;;;;;;2.00;0.90;;;;;;;4.33;94.06;95158.91;5053691;28;20071;-79
2024/01/02 08:47:24;;;;;;;1.48;1.05;;;;;;;4.08;93.16;95119.06;5031907;28;20547;-79
2024/01/02 08:49:50;;;;;;;2.25;1.30;;;;;;;4.31;92.68;95147.03;5033199;28;20037;-79
2024/01/02 08:52:15;;;;;;;4.53;1.42;;;;;;;4.34;93.85;95130.84;5033933;28;20696;-80
2024/01/02 08:54:41;;;;;;;3.35;1.80;;;;;;;3.22;92.89;94949.56;5034432;28;20385;-79
2024/01/02 08:57:16;;;;;;;4.20;1.80;;;;;;;4.78;93.02;95182.56;5040558;28;20037;-80
2024/01/02 08:59:41;;;;;;;2.03;1.30;;;;;;;4.88;93.52;95192.47;5039278;28;20095;-79
2024/01/02 09:02:07;;;;;;;6.47;2.78;;;;;;;4.98;94.56;95205.75;5033103;28;20461;-80
2024/01/02 09:04:33;;;;;;;2.22;1.30;;;;;;;4.78;94.19;95151.03;5033073;28;20075;-80
2024/01/02 09:06:58;;;;;;;2.97;1.45;;;;;;;5.10;92.96;95185.47;5034020;28;20468;-80
2024/01/02 09:09:24;;;;;;;5.82;1.40;;;;;;;5.05;93.61;95164.34;5034533;28;20109;-79
2024/01/02 09:11:49;;;;;;;3.50;1.88;;;;;;;4.68;93.17;95106.19;5033203;28;20034;-79
2024/01/02 09:14:15;;;;;;;6.70;1.88;;;;;;;5.29;92.79;95186.81;5033306;28;20029;-79
2024/01/02 09:16:42;;;;;;;3.40;1.85;;;;;;;5.24;91.20;95165.69;5032119;28;20069;-79
2024/01/02 09:19:08;;;;;;;4.13;1.83;;;;;;;5.22;90.86;95159.88;5033426;28;20057;-79
2024/01/02 09:21:33;;;;;;;5.82;1.40;;;;;;;5.20;89.73;95167.19;5033885;28;20041;-79
2024/01/02 09:23:59;;;;;;;3.72;1.33;;;;;;;5.04;90.40;95137.25;5035186;28;20026;-79
2024/01/02 09:26:25;;;;;;;4.28;1.40;;;;;;;4.77;88.52;95091.63;5032512;28;20033;-80
2024/01/02 09:28:51;;;;;;;4.78;1.70;;;;;;;5.25;89.51;95154.16;5035170;28;20056;-79
2024/01/02 09:31:18;;;;;;;4.93;2.05;;;;;;;4.83;88.16;95109.06;5035132;28;20041;-79
2024/01/02 09:33:44;;;;;;;6.10;2.15;;;;;;;5.28;89.73;95153.66;5032656;28;20029;-80
2024/01/02 09:36:10;;;;;;;4.25;1.83;;;;;;;5.33;88.14;95171.34;5032880;28;20183;-79
2024/01/02 09:38:39;;;;;;;7.13;2.72;;;;;;;5.34;88.21;95155.31;5031829;28;20076;-80
2024/01/02 09:41:32;;;;;;;4.95;2.35;;;;;;;5.34;87.60;95171.09;5032438;28;20120;-79
2024/01/02 09:44:10;;;;;;;4.43;2.33;;;;;;;5.47;87.55;95159.47;5033382;28;20408;-79
2024/01/02 09:46:35;;;;;;;7.88;2.60;;;;;;;5.44;88.10;95152.84;5042228;28;20060;-79
2024/01/02 09:49:06;;;;;;;3.80;2.17;;;;;;;5.45;87.28;95151.00;5055390;28;20426;-79
2024/01/02 09:52:07;;;;;;;9.15;2.55;;;;;;;5.32;87.79;95123.22;5053986;28;20067;-79
2024/01/02 09:54:36;;;;;;;4.43;2.10;;;;;;;5.61;88.88;95150.19;5036022;28;20028;-80
2024/01/02 09:57:56;;;;;;;5.32;2.53;;;;;;;5.48;87.20;95113.72;5053597;28;20028;-79
2024/01/02 10:00:53;;;;;;;8.32;3.40;;;;;;;5.41;87.22;95092.84;4998834;28;20041;-79
2024/01/02 10:03:56;;;;;;;6.32;3.08;;;;;;;5.86;87.99;95128.66;5053910;28;20522;-79
2024/01/02 10:06:44;;;;;;;6.88;3.00;;;;;;;6.02;87.51;95127.03;5035343;28;20461;-79
2024/01/02 10:09:26;;;;;;;9.38;3.88;;;;;;;6.06;87.74;95120.22;5047409;28;20033;-79
2024/01/02 10:12:24;;;;;;;9.90;3.67;;;;;;;5.77;86.39;95048.56;5048563;28;20313;-79
2024/01/02 10:15:25;;;;;;;6.05;3.10;;;;;;;6.18;86.92;95111.16;5034954;28;20131;-79
2024/01/02 10:18:08;;;;;;;10.18;3.50;;;;;;;6.14;85.80;95132.97;5036322;28;20041;-79
2024/01/02 10:20:55;;;;;;;7.00;2.55;;;;;;;6.25;85.94;95120.72;5052349;28;20025;-80
2024/01/02 10:23:43;;;;;;;3.83;2.53;;;;;;;6.33;85.15;95115.78;5051410;28;20039;-80
2024/01/02 10:26:09;;;;;;;3.83;2.22;;;;;;;6.17;84.76;95067.44;5032920;28;20044;-80
2024/01/02 10:28:41;;;;;;;5.28;2.20;;;;;;;6.74;84.49;95103.00;5050865;28;20040;-80
2024/01/02 10:31:39;;;;;;;2.60;1.83;;;;;;;7.44;86.14;95092.16;5051084;28;20112;-80
2024/01/02 10:34:19;;;;;;;5.45;2.88;;;;;;;7.84;84.91;95098.69;5049718;28;20044;-80
2024/01/02 10:36:53;;;;;;;8.02;2.30;;;;;;;7.87;81.65;95106.88;5031532;28;20039;-79
2024/01/02 10:39:31;;;;;;;5.45;1.73;;;;;;;8.03;80.23;95100.59;5032939;28;20114;-80
2024/01/02 10:42:24;;;;;;;4.90;2.30;;;;;;;7.97;79.46;95085.00;5032149;28;20055;-80
2024/01/02 10:45:16;;;;;;;3.72;1.92;;;;;;;7.91;78.51;95093.97;5050162;28;20037;-79
2024/01/02 10:48:26;;;;;;;2.78;1.15;;;;;;;7.31;80.07;95045.94;5032356;28;20053;-80
2024/01/02 10:51:10;;;;;;;6.18;1.58;;;;;;;7.53;79.42;95101.19;5038683;28;20060;-79
2024/01/02 10:53:54;;;;;;;3.13;1.58;;;;;;;6.79;79.94;95003.66;5054251;28;20510;-79
2024/01/02 10:56:38;;;;;;;3.67;1.70;;;;;;;7.39;81.60;95093.97;5036891;28;20041;-79
2024/01/02 10:59:27;;;;;;;4.68;2.30;;;;;;;7.20;82.10;95094.38;5036721;28;20033;-80
2024/01/02 11:02:18;;;;;;;3.35;2.45;;;;;;;7.23;82.74;95077.25;5045986;28;20178;-79
2024/01/02 11:05:09;;;;;;;4.55;2.05;;;;;;;7.12;83.56;95073.75;5036815;28;20047;-80
2024/01/02 11:07:36;;;;;;;3.00;1.73;;;;;;;7.09;83.52;95055.03;5054290;28;20029;-79
2024/01/02 11:10:24;;;;;;;5.10;1.73;;;;;;;7.45;84.22;95071.84;5054769;28;20056;-80
2024/01/02 11:13:03;;;;;;;2.47;1.65;;;;;;;7.57;84.67;95075.84;5054071;28;20029;-80
2024/01/02 11:15:32;;;;;;;3.28;1.80;;;;;;;7.51;83.00;95061.06;5053352;28;20021;-80
2024/01/02 11:18:03;;;;;;;5.47;2.40;;;;;;;7.18;84.29;95014.72;5053022;28;20433;-80
2024/01/02 11:20:47;;;;;;;2.72;1.65;;;;;;;7.42;83.07;95077.63;5034564;28;20329;-80
2024/01/02 11:23:17;;;;;;;8.48;2.00;;;;;;;7.10;82.92;95027.59;5034368;28;20025;-80
2024/01/02 11:26:17;;;;;;;3.90;1.88;;;;;;;7.05;83.88;95040.75;5034253;28;20032;-80
2024/01/02 11:28:46;;;;;;;5.03;2.65;;;;;;;7.10;83.17;95060.03;5027857;28;20080;-80
2024/01/02 11:31:13;;;;;;;4.97;2.10;;;;;;;7.26;83.46;95060.91;5074800;28;20025;-81
2024/01/02 11:34:16;;;;;;;5.32;2.13;;;;;;;7.32;85.53;95055.41;5057523;28;20274;-81
2024/01/02 11:37:05;;;;;;;5.68;2.58;;;;;;;7.34;84.43;95039.31;5058300;28;20049;-81
2024/01/02 11:39:53;;;;;;;3.90;2.20;;;;;;;7.48;83.82;95053.63;5086614;22;20120;-79
2024/01/02 11:42:52;;;;;;;6.35;3.38;;;;;;;7.45;83.56;95056.00;5019204;28;20059;-79
2024/01/02 11:45:21;;;;;;;4.35;2.08;;;;;;;7.28;83.00;95008.69;5018406;28;20040;-80
2024/01/02 11:48:24;;;;;;;4.22;2.10;;;;;;;7.44;83.09;95055.22;5002782;28;20151;-79